createdAt,value
2019-03-06T00:00:05.500Z,99.90
2019-03-06T00:02:38.180Z,99.90
2019-03-06T00:05:09.423Z,99.90
2019-03-06T00:07:40.511Z,99.90
2019-03-06T00:10:26.064Z,99.90
2019-03-06T00:12:57.439Z,99.90
2019-03-06T00:15:28.686Z,99.90
2019-03-06T00:17:59.842Z,99.90
2019-03-06T00:20:30.993Z,99.90
2019-03-06T00:23:02.272Z,99.90
2019-03-06T00:25:33.410Z,99.90
2019-03-06T00:28:04.607Z,99.90
2019-03-06T00:30:35.854Z,99.90
2019-03-06T00:33:06.987Z,99.90
2019-03-06T00:35:41.980Z,99.90
2019-03-06T00:38:13.049Z,99.90
2019-03-06T00:41:01.950Z,99.90
2019-03-06T00:43:33.023Z,99.90
2019-03-06T00:46:04.191Z,99.90
2019-03-06T00:48:35.444Z,99.90
2019-03-06T00:51:06.550Z,99.90
2019-03-06T00:53:37.631Z,99.90
2019-03-06T00:56:08.792Z,99.90
2019-03-06T00:58:40.295Z,99.90
2019-03-06T01:01:11.612Z,99.90
2019-03-06T01:03:42.854Z,99.90
2019-03-06T01:06:14.103Z,99.90
2019-03-06T01:08:48.098Z,99.90
2019-03-06T01:11:19.461Z,99.90
2019-03-06T01:13:50.527Z,99.90
2019-03-06T01:16:21.630Z,99.90
2019-03-06T01:18:52.994Z,99.90
2019-03-06T01:21:26.390Z,99.90
2019-03-06T01:24:00.187Z,99.90
2019-03-06T01:26:33.707Z,99.90
2019-03-06T01:29:07.311Z,99.90
2019-03-06T01:31:40.784Z,99.90
2019-03-06T01:34:43.547Z,99.90
2019-03-06T01:37:26.016Z,99.90
2019-03-06T01:40:19.666Z,99.90
2019-03-06T01:43:09.855Z,99.90
2019-03-06T01:45:40.952Z,99.90
2019-03-06T01:48:12.043Z,99.90
2019-03-06T01:50:43.163Z,99.90
2019-03-06T01:53:14.340Z,99.90
2019-03-06T01:55:45.372Z,99.90
2019-03-06T01:58:16.568Z,99.90
2019-03-06T02:00:47.760Z,99.90
2019-03-06T02:03:19.928Z,99.90
2019-03-06T02:05:51.203Z,99.90
2019-03-06T02:08:22.378Z,99.90
2019-03-06T02:10:53.635Z,99.90
2019-03-06T02:13:25.709Z,99.90
2019-03-06T02:15:56.868Z,99.90
2019-03-06T02:18:28.050Z,99.90
2019-03-06T02:20:59.449Z,99.90
2019-03-06T02:23:30.488Z,99.90
2019-03-06T02:26:01.549Z,99.90
2019-03-06T02:28:32.595Z,99.90
2019-03-06T02:31:03.668Z,99.90
2019-03-06T02:33:34.777Z,99.90
2019-03-06T02:36:05.945Z,99.90
2019-03-06T02:38:37.062Z,99.90
2019-03-06T02:41:08.133Z,99.90
2019-03-06T02:43:39.415Z,99.90
2019-03-06T02:46:10.506Z,99.90
2019-03-06T02:48:41.592Z,99.90
2019-03-06T02:51:12.695Z,99.90
2019-03-06T02:53:43.858Z,99.90
2019-03-06T02:56:14.955Z,99.90
2019-03-06T02:58:52.185Z,99.90
2019-03-06T03:01:48.495Z,99.90
2019-03-06T03:04:27.439Z,99.90
2019-03-06T03:07:01.608Z,99.90
2019-03-06T03:09:32.672Z,99.90
2019-03-06T03:12:03.925Z,99.90
2019-03-06T03:14:35.027Z,99.90
2019-03-06T03:17:06.204Z,99.90
2019-03-06T03:19:37.361Z,99.90
2019-03-06T03:22:08.641Z,99.90
2019-03-06T03:24:39.763Z,99.90
2019-03-06T03:27:10.853Z,99.90
2019-03-06T03:29:42.033Z,99.90
2019-03-06T03:32:13.088Z,99.90
2019-03-06T03:34:44.221Z,99.90
2019-03-06T03:37:15.360Z,99.90
2019-03-06T03:39:46.462Z,99.90
2019-03-06T03:42:17.569Z,99.90
2019-03-06T03:44:48.775Z,99.90
2019-03-06T03:47:19.880Z,99.90
2019-03-06T03:49:51.315Z,99.90
2019-03-06T03:52:22.431Z,99.90
2019-03-06T03:54:53.522Z,99.90
2019-03-06T03:57:24.716Z,99.90
2019-03-06T03:59:56.058Z,99.90
2019-03-06T04:02:27.232Z,99.90
2019-03-06T04:04:58.471Z,99.90
2019-03-06T04:07:29.837Z,99.90
2019-03-06T04:10:01.024Z,99.90
2019-03-06T04:12:34.120Z,99.90
2019-03-06T04:15:05.741Z,99.90
2019-03-06T04:17:36.852Z,99.90
2019-03-06T04:20:09.706Z,99.90
2019-03-06T04:22:40.862Z,99.90
2019-03-06T04:25:13.592Z,99.90
2019-03-06T04:27:44.711Z,99.90
2019-03-06T04:30:15.907Z,99.90
2019-03-06T04:32:47.023Z,99.90
2019-03-06T04:35:18.103Z,99.90
2019-03-06T04:37:49.608Z,99.90
2019-03-06T04:40:20.911Z,99.90
2019-03-06T04:42:52.001Z,99.90
2019-03-06T04:45:23.083Z,99.90
2019-03-06T04:47:54.186Z,99.90
2019-03-06T04:50:25.275Z,99.90
2019-03-06T04:52:56.448Z,99.90
2019-03-06T04:55:27.510Z,99.90
2019-03-06T04:57:58.521Z,99.90
2019-03-06T05:00:29.636Z,99.90
2019-03-06T05:03:00.708Z,99.90
2019-03-06T05:05:31.874Z,99.90
2019-03-06T05:08:02.956Z,99.90
2019-03-06T05:10:34.062Z,99.90
2019-03-06T05:13:05.412Z,99.90
2019-03-06T05:15:36.507Z,99.90
2019-03-06T05:18:17.119Z,99.90
2019-03-06T05:20:48.197Z,99.90
2019-03-06T05:23:19.403Z,99.90
2019-03-06T05:25:50.531Z,99.90
2019-03-06T05:28:21.619Z,99.90
2019-03-06T05:30:52.643Z,99.90
2019-03-06T05:33:23.747Z,99.90
2019-03-06T05:36:34.804Z,99.90
2019-03-06T05:39:10.973Z,99.90
2019-03-06T05:41:42.134Z,99.90
2019-03-06T05:44:13.287Z,99.90
2019-03-06T05:46:45.294Z,99.90
2019-03-06T05:49:16.379Z,99.90
2019-03-06T05:51:47.507Z,99.90
2019-03-06T05:54:18.688Z,99.90
2019-03-06T05:56:49.788Z,99.90
2019-03-06T05:59:21.095Z,99.90
2019-03-06T06:01:52.215Z,99.90
2019-03-06T06:04:23.300Z,99.90
2019-03-06T06:06:54.379Z,99.90
2019-03-06T06:09:25.476Z,99.90
2019-03-06T06:11:56.555Z,99.90
2019-03-06T06:14:27.647Z,99.90
2019-03-06T06:16:58.760Z,99.90
2019-03-06T06:19:29.888Z,99.90
2019-03-06T06:22:12.859Z,99.90
2019-03-06T06:24:43.978Z,99.90
2019-03-06T06:27:15.051Z,99.90
2019-03-06T06:29:46.375Z,99.90
2019-03-06T06:32:17.444Z,99.90
2019-03-06T06:34:48.542Z,99.90
2019-03-06T06:37:19.615Z,99.90
2019-03-06T06:39:50.630Z,99.90
2019-03-06T06:42:21.740Z,99.90
2019-03-06T06:44:52.816Z,99.90
2019-03-06T06:47:23.859Z,99.90
2019-03-06T06:49:54.919Z,99.90
2019-03-06T06:53:15.111Z,99.90
2019-03-06T06:56:18.682Z,99.90
2019-03-06T06:59:03.749Z,99.90
2019-03-06T07:02:32.082Z,99.90
2019-03-06T07:05:26.426Z,99.90
2019-03-06T07:08:25.851Z,99.90
2019-03-06T07:11:10.441Z,99.90
2019-03-06T07:13:59.539Z,99.90
2019-03-06T07:16:44.030Z,99.90
2019-03-06T07:19:31.373Z,99.90
2019-03-06T07:22:10.636Z,99.90
2019-03-06T07:25:12.746Z,99.90
2019-03-06T07:27:51.486Z,96.90
2019-03-06T07:30:40.083Z,92.70
2019-03-06T07:33:33.209Z,91.60
2019-03-06T07:36:10.635Z,90.70
2019-03-06T07:38:41.733Z,87.50
2019-03-06T07:41:34.956Z,85.00
2019-03-06T07:44:30.396Z,82.00
2019-03-06T07:47:18.818Z,79.30
2019-03-06T07:50:19.494Z,78.00
2019-03-06T07:53:48.712Z,76.90
2019-03-06T07:56:35.346Z,77.70
2019-03-06T07:59:06.483Z,79.60
2019-03-06T08:01:40.771Z,79.90
2019-03-06T08:04:13.459Z,82.50
2019-03-06T08:06:51.423Z,82.70
2019-03-06T08:09:22.686Z,82.10
2019-03-06T08:12:16.002Z,81.30
2019-03-06T08:14:53.206Z,80.20
2019-03-06T08:17:29.457Z,81.20
2019-03-06T08:20:19.756Z,81.30
2019-03-06T08:23:16.963Z,81.70
2019-03-06T08:25:50.554Z,84.00
2019-03-06T08:28:21.715Z,84.80
2019-03-06T08:30:56.065Z,86.20
2019-03-06T08:33:27.470Z,85.40
2019-03-06T08:35:58.657Z,85.80
2019-03-06T08:38:30.212Z,86.20
2019-03-06T08:41:04.521Z,85.90
2019-03-06T08:43:34.038Z,83.20
2019-03-06T08:46:29.598Z,85.20
2019-03-06T08:49:23.798Z,88.20
2019-03-06T08:52:06.892Z,92.30
2019-03-06T08:55:00.497Z,94.60
2019-03-06T08:57:40.123Z,99.90
2019-03-06T09:00:24.071Z,99.90
2019-03-06T09:03:21.267Z,99.90
2019-03-06T09:06:11.560Z,99.90
2019-03-06T09:09:02.141Z,99.90
2019-03-06T09:11:41.418Z,99.90
2019-03-06T09:14:29.966Z,99.90
2019-03-06T09:17:26.807Z,99.90
2019-03-06T09:20:08.871Z,99.90
2019-03-06T09:22:57.674Z,99.90
2019-03-06T09:25:35.175Z,99.90
2019-03-06T09:28:11.893Z,99.90
2019-03-06T09:31:07.406Z,99.90
2019-03-06T09:34:01.952Z,99.90
2019-03-06T09:36:41.588Z,99.90
2019-03-06T09:39:22.539Z,99.90
2019-03-06T09:42:18.578Z,99.90
2019-03-06T09:45:04.843Z,99.90
2019-03-06T09:47:45.946Z,99.90
2019-03-06T09:50:34.939Z,99.90
2019-03-06T09:53:31.288Z,99.90
2019-03-06T09:56:14.470Z,99.90
2019-03-06T09:58:59.887Z,99.90
2019-03-06T10:01:50.179Z,99.90
2019-03-06T10:04:40.376Z,99.90
2019-03-06T10:07:20.594Z,98.80
2019-03-06T10:10:13.526Z,99.40
2019-03-06T10:12:50.339Z,98.80
2019-03-06T10:15:28.449Z,98.70
2019-03-06T10:18:03.479Z,99.90
2019-03-06T10:20:34.898Z,99.90
2019-03-06T10:23:08.299Z,99.90
2019-03-06T10:25:39.179Z,99.90
2019-03-06T10:28:10.431Z,99.90
2019-03-06T10:30:42.145Z,99.90
2019-03-06T10:33:13.523Z,99.90
2019-03-06T10:35:44.946Z,99.90
2019-03-06T10:38:16.836Z,99.90
2019-03-06T10:40:49.255Z,99.90
2019-03-06T10:43:20.515Z,99.90
2019-03-06T10:45:51.702Z,99.90
2019-03-06T10:48:22.867Z,99.90
2019-03-06T10:50:54.089Z,99.90
2019-03-06T10:53:25.347Z,99.90
2019-03-06T10:55:57.528Z,99.90
2019-03-06T10:58:29.978Z,99.90
2019-03-06T11:01:01.163Z,99.90
2019-03-06T11:03:38.400Z,99.90
2019-03-06T11:06:09.936Z,99.90
2019-03-06T11:08:41.158Z,99.90
2019-03-06T11:11:12.613Z,99.90
2019-03-06T11:13:43.857Z,99.90
2019-03-06T11:16:17.986Z,99.90
2019-03-06T11:18:48.157Z,99.90
2019-03-06T11:21:20.096Z,99.90
2019-03-06T11:23:51.277Z,99.90
2019-03-06T11:26:22.521Z,99.90
2019-03-06T11:28:53.860Z,99.90
2019-03-06T11:31:25.263Z,99.90
2019-03-06T11:33:56.845Z,99.90
2019-03-06T11:36:28.167Z,99.90
2019-03-06T11:38:59.375Z,99.90
2019-03-06T11:41:31.442Z,99.90
2019-03-06T11:44:02.731Z,99.90
2019-03-06T11:46:34.801Z,99.90
2019-03-06T11:49:06.841Z,99.90
2019-03-06T11:51:38.371Z,99.90
2019-03-06T11:54:09.904Z,99.90
2019-03-06T11:56:41.586Z,99.90
2019-03-06T11:59:13.064Z,99.90
2019-03-06T12:01:48.283Z,99.90
2019-03-06T12:04:18.342Z,99.90
2019-03-06T12:06:50.140Z,99.90
2019-03-06T12:09:33.920Z,99.90
2019-03-06T12:12:05.627Z,99.90
2019-03-06T12:14:36.972Z,99.90
2019-03-06T12:17:08.384Z,99.90
2019-03-06T12:19:40.076Z,99.90
2019-03-06T12:22:11.336Z,99.90
2019-03-06T12:24:42.520Z,99.90
2019-03-06T12:27:14.144Z,99.90
2019-03-06T12:29:46.156Z,99.90
2019-03-06T12:32:17.675Z,99.90
2019-03-06T12:34:48.838Z,99.90
2019-03-06T12:37:20.376Z,99.90
2019-03-06T12:39:51.649Z,99.90
2019-03-06T12:42:30.924Z,99.90
2019-03-06T12:45:02.136Z,99.90
2019-03-06T12:47:33.624Z,99.90
2019-03-06T12:50:06.258Z,99.90
2019-03-06T12:52:37.860Z,99.90
2019-03-06T12:55:10.203Z,99.90
2019-03-06T12:57:41.419Z,99.90
2019-03-06T13:00:22.724Z,99.90
2019-03-06T13:02:54.253Z,99.90
2019-03-06T13:05:25.579Z,99.90
2019-03-06T13:07:56.911Z,99.90
2019-03-06T13:10:28.359Z,99.90
2019-03-06T13:13:00.308Z,99.90
2019-03-06T13:15:31.686Z,99.90
2019-03-06T13:18:02.953Z,99.90
2019-03-06T13:20:34.123Z,99.90
2019-03-06T13:23:05.831Z,99.90
2019-03-06T13:25:37.147Z,99.90
2019-03-06T13:28:08.376Z,99.90
2019-03-06T13:30:39.903Z,99.90
2019-03-06T13:33:33.129Z,99.90
2019-03-06T13:36:04.686Z,99.90
2019-03-06T13:38:35.844Z,99.90
2019-03-06T13:41:07.036Z,99.90
2019-03-06T13:43:38.146Z,99.90
2019-03-06T13:46:09.390Z,99.90
2019-03-06T13:48:40.498Z,99.90
2019-03-06T13:51:11.784Z,99.90
2019-03-06T13:53:42.940Z,99.90
2019-03-06T13:56:14.284Z,99.90
2019-03-06T13:58:45.743Z,99.90
2019-03-06T14:01:17.781Z,99.90
2019-03-06T14:03:49.004Z,99.90
2019-03-06T14:06:20.607Z,99.90
2019-03-06T14:08:51.933Z,99.90
2019-03-06T14:11:23.128Z,99.90
2019-03-06T14:13:54.305Z,99.90
2019-03-06T14:16:25.863Z,99.90
2019-03-06T14:18:57.038Z,99.90
2019-03-06T14:21:28.235Z,99.90
2019-03-06T14:23:59.436Z,99.90
2019-03-06T14:26:30.686Z,99.90
2019-03-06T14:29:01.796Z,99.90
2019-03-06T14:31:33.160Z,99.90
2019-03-06T14:34:04.361Z,99.90
2019-03-06T14:36:35.487Z,99.90
2019-03-06T14:39:21.625Z,99.90
2019-03-06T14:41:53.153Z,99.90
2019-03-06T14:44:24.461Z,99.90
2019-03-06T14:46:55.612Z,99.90
2019-03-06T14:49:30.350Z,99.90
2019-03-06T14:52:07.292Z,99.90
2019-03-06T14:54:34.395Z,99.90
2019-03-06T14:57:05.571Z,99.90
2019-03-06T14:59:36.720Z,99.90
2019-03-06T15:02:08.083Z,99.90
2019-03-06T15:04:39.211Z,99.90
2019-03-06T15:07:10.444Z,99.90
2019-03-06T15:09:41.637Z,99.90
2019-03-06T15:12:12.983Z,99.90
2019-03-06T15:14:44.070Z,99.90
2019-03-06T15:17:15.447Z,99.90
2019-03-06T15:19:46.681Z,99.90
2019-03-06T15:22:17.949Z,99.90
2019-03-06T15:24:50.575Z,99.90
2019-03-06T15:27:22.682Z,99.90
2019-03-06T15:29:55.125Z,99.90
2019-03-06T15:32:27.331Z,99.90
2019-03-06T15:34:58.525Z,99.90
2019-03-06T15:37:29.729Z,99.90
2019-03-06T15:40:00.921Z,99.90
2019-03-06T15:42:32.099Z,99.90
2019-03-06T15:45:03.293Z,99.90
2019-03-06T15:47:35.489Z,99.90
2019-03-06T15:50:08.591Z,99.90
2019-03-06T15:52:39.799Z,99.90
2019-03-06T15:55:11.302Z,99.90
2019-03-06T15:57:42.504Z,99.90
2019-03-06T16:00:21.364Z,99.90
2019-03-06T16:02:52.709Z,99.90
2019-03-06T16:05:24.467Z,99.90
2019-03-06T16:07:57.118Z,99.90
2019-03-06T16:10:28.777Z,99.90
2019-03-06T16:13:00.155Z,99.90
2019-03-06T16:15:31.502Z,99.90
2019-03-06T16:18:03.106Z,99.90
2019-03-06T16:20:35.063Z,99.90
2019-03-06T16:23:06.681Z,99.90
2019-03-06T16:25:40.153Z,99.90
2019-03-06T16:28:11.532Z,99.90
2019-03-06T16:30:43.290Z,99.90
2019-03-06T16:33:36.318Z,99.90
2019-03-06T16:36:07.626Z,99.90
2019-03-06T16:38:40.055Z,99.90
2019-03-06T16:41:11.576Z,99.90
2019-03-06T16:43:43.891Z,99.90
2019-03-06T16:46:15.316Z,99.90
2019-03-06T16:48:46.944Z,99.90
2019-03-06T16:51:18.179Z,99.90
2019-03-06T16:53:49.868Z,99.90
2019-03-06T16:56:21.530Z,99.90
2019-03-06T16:58:52.781Z,99.90
2019-03-06T17:01:25.038Z,99.90
2019-03-06T17:03:56.313Z,99.90
2019-03-06T17:06:27.507Z,99.90
2019-03-06T17:08:58.623Z,99.90
2019-03-06T17:11:30.095Z,99.90
2019-03-06T17:14:01.309Z,99.90
2019-03-06T17:16:32.577Z,99.90
2019-03-06T17:19:03.967Z,99.90
2019-03-06T17:21:35.212Z,99.90
2019-03-06T17:24:06.455Z,99.90
2019-03-06T17:26:37.687Z,99.90
2019-03-06T17:29:14.015Z,99.90
2019-03-06T17:31:45.687Z,99.90
2019-03-06T17:34:35.635Z,99.90
2019-03-06T17:37:26.769Z,99.90
2019-03-06T17:40:19.752Z,99.90
2019-03-06T17:43:08.892Z,99.90
2019-03-06T17:45:58.338Z,99.90
2019-03-06T17:48:47.747Z,99.90
2019-03-06T17:51:36.620Z,99.90
2019-03-06T17:54:26.170Z,99.90
2019-03-06T17:57:15.491Z,99.90
2019-03-06T18:00:06.055Z,99.90
2019-03-06T18:02:56.303Z,99.90
2019-03-06T18:05:44.919Z,99.90
2019-03-06T18:08:33.909Z,99.90
2019-03-06T18:11:22.758Z,99.90
2019-03-06T18:14:11.370Z,99.90
2019-03-06T18:17:00.664Z,99.90
2019-03-06T18:19:50.194Z,99.90
2019-03-06T18:22:39.561Z,99.90
2019-03-06T18:25:28.953Z,99.90
2019-03-06T18:28:18.414Z,99.90
2019-03-06T18:31:08.232Z,99.90
2019-03-06T18:34:01.689Z,99.90
2019-03-06T18:36:51.635Z,99.90
2019-03-06T18:39:41.447Z,99.90
2019-03-06T18:42:30.187Z,99.90
2019-03-06T18:45:19.685Z,99.90
2019-03-06T18:48:09.377Z,99.90
2019-03-06T18:50:59.004Z,99.90
2019-03-06T18:53:48.524Z,99.90
2019-03-06T18:56:37.019Z,99.90
2019-03-06T18:59:25.928Z,99.90
2019-03-06T19:02:14.994Z,99.90
2019-03-06T19:05:04.944Z,99.90
2019-03-06T19:07:54.755Z,99.90
2019-03-06T19:10:43.301Z,99.90
2019-03-06T19:13:32.138Z,99.90
2019-03-06T19:16:21.360Z,99.90
2019-03-06T19:19:10.856Z,99.90
2019-03-06T19:21:59.668Z,99.90
2019-03-06T19:24:49.423Z,99.90
2019-03-06T19:27:39.221Z,99.90
2019-03-06T19:30:29.209Z,99.90
2019-03-06T19:33:18.574Z,99.90
2019-03-06T19:36:08.389Z,99.90
2019-03-06T19:38:57.435Z,99.90
2019-03-06T19:41:47.359Z,99.90
2019-03-06T19:44:36.545Z,99.90
2019-03-06T19:47:25.317Z,99.90
2019-03-06T19:50:17.378Z,99.90
2019-03-06T19:53:06.879Z,99.90
2019-03-06T19:55:56.643Z,99.90
2019-03-06T19:58:45.370Z,99.90
2019-03-06T20:01:35.159Z,99.90
2019-03-06T20:04:24.774Z,99.90
2019-03-06T20:07:14.643Z,99.90
2019-03-06T20:10:04.486Z,99.90
2019-03-06T20:12:55.225Z,99.90
2019-03-06T20:15:44.098Z,99.90
2019-03-06T20:18:37.068Z,99.90
2019-03-06T20:21:26.448Z,99.90
2019-03-06T20:24:16.445Z,99.90
2019-03-06T20:27:05.970Z,99.90
2019-03-06T20:29:55.029Z,99.90
2019-03-06T20:32:44.093Z,99.90
2019-03-06T20:35:34.504Z,99.90
2019-03-06T20:38:24.224Z,99.90
2019-03-06T20:41:14.193Z,99.90
2019-03-06T20:44:04.031Z,99.90
2019-03-06T20:46:53.019Z,99.90
2019-03-06T20:49:42.647Z,99.90
2019-03-06T20:52:32.279Z,99.90
2019-03-06T20:55:22.109Z,99.90
2019-03-06T20:58:10.916Z,99.90
2019-03-06T21:01:02.664Z,99.90
2019-03-06T21:03:52.686Z,99.90
2019-03-06T21:06:41.603Z,99.90
2019-03-06T21:09:30.689Z,99.90
2019-03-06T21:12:19.482Z,99.90
2019-03-06T21:15:10.168Z,99.90
2019-03-06T21:17:59.729Z,99.90
2019-03-06T21:20:48.397Z,99.90
2019-03-06T21:23:38.002Z,99.90
2019-03-06T21:26:27.448Z,99.90
2019-03-06T21:29:17.049Z,99.90
2019-03-06T21:32:06.276Z,99.90
2019-03-06T21:34:55.126Z,99.90
2019-03-06T21:37:44.130Z,99.90
2019-03-06T21:40:34.122Z,99.90
2019-03-06T21:43:23.841Z,99.90
2019-03-06T21:46:13.202Z,99.90
2019-03-06T21:49:03.276Z,99.90
2019-03-06T21:51:52.314Z,99.90
2019-03-06T21:54:42.371Z,99.90
2019-03-06T21:57:31.715Z,99.90
2019-03-06T22:00:22.143Z,99.90
2019-03-06T22:03:11.631Z,99.90
2019-03-06T22:06:00.420Z,99.90
2019-03-06T22:08:49.750Z,99.90
2019-03-06T22:11:39.214Z,99.90
2019-03-06T22:14:28.939Z,99.90
2019-03-06T22:17:17.801Z,99.90
2019-03-06T22:20:07.831Z,99.90
2019-03-06T22:22:57.338Z,99.90
2019-03-06T22:25:46.106Z,99.90
2019-03-06T22:28:35.680Z,99.90
2019-03-06T22:31:24.224Z,99.90
2019-03-06T22:34:13.785Z,99.90
2019-03-06T22:37:02.791Z,99.90
2019-03-06T22:39:51.580Z,99.90
2019-03-06T22:42:40.991Z,99.90
2019-03-06T22:45:31.539Z,99.90
2019-03-06T22:48:21.008Z,99.90
2019-03-06T22:51:10.311Z,99.90
2019-03-06T22:54:00.639Z,99.90
2019-03-06T22:56:49.464Z,99.90
2019-03-06T22:59:38.840Z,99.90
2019-03-06T23:02:28.060Z,99.90
2019-03-06T23:05:17.607Z,99.90
2019-03-06T23:08:06.980Z,99.90
2019-03-06T23:10:55.871Z,99.90
2019-03-06T23:13:44.923Z,99.90
2019-03-06T23:16:33.842Z,99.90
2019-03-06T23:19:23.084Z,99.90
2019-03-06T23:22:12.351Z,99.90
2019-03-06T23:25:01.672Z,99.90
2019-03-06T23:27:53.006Z,99.90
2019-03-06T23:30:41.752Z,99.90
2019-03-06T23:33:31.091Z,99.90
2019-03-06T23:36:20.350Z,99.90
2019-03-06T23:39:12.521Z,99.90
2019-03-06T23:42:02.090Z,99.90
2019-03-06T23:44:50.947Z,99.90
2019-03-06T23:47:39.907Z,99.90
2019-03-06T23:50:28.958Z,99.90
2019-03-06T23:53:21.096Z,99.90
2019-03-06T23:56:10.515Z,99.90
2019-03-06T23:59:00.082Z,99.90
